createdAt,value
2023-04-26T09:55:34.774Z,9.50
2023-04-26T09:58:10.644Z,9.50
2023-04-26T10:00:39.476Z,9.90
2023-04-26T10:03:08.883Z,10.10
2023-04-26T10:05:37.238Z,10.10
2023-04-26T10:08:05.984Z,10.40
2023-04-26T10:10:33.745Z,10.50
2023-04-26T10:13:01.175Z,10.50
2023-04-26T10:15:28.680Z,10.20
2023-04-26T10:17:58.873Z,9.90
2023-04-26T10:20:29.324Z,9.60
2023-04-26T10:23:04.009Z,9.50
2023-04-26T10:25:42.475Z,9.40
2023-04-26T10:28:09.431Z,9.70
2023-04-26T10:30:55.594Z,10.00
2023-04-26T10:33:23.919Z,10.10
2023-04-26T10:36:10.324Z,10.00
2023-04-26T10:38:39.860Z,10.00
2023-04-26T10:41:43.890Z,10.00
2023-04-26T10:44:42.332Z,9.90
2023-04-26T10:47:24.443Z,9.80
2023-04-26T10:49:51.945Z,9.80
2023-04-26T10:52:23.049Z,9.80
2023-04-26T10:54:57.913Z,9.80
2023-04-26T10:57:52.043Z,9.80
2023-04-26T11:00:21.366Z,9.70
2023-04-26T11:03:09.601Z,9.70
2023-04-26T11:05:37.975Z,9.70
2023-04-26T11:08:15.347Z,9.70
2023-04-26T11:10:42.933Z,9.60
2023-04-26T11:13:09.905Z,9.60
2023-04-26T11:15:36.960Z,9.70
2023-04-26T11:18:05.078Z,10.00
2023-04-26T11:20:35.520Z,10.40
2023-04-26T11:23:02.799Z,10.70
2023-04-26T11:25:30.018Z,10.80
2023-04-26T11:28:02.227Z,10.80
2023-04-26T11:30:33.265Z,10.50
2023-04-26T11:33:01.656Z,10.20
2023-04-26T11:35:30.101Z,10.00
2023-04-26T11:38:09.316Z,10.00
2023-04-26T11:40:39.119Z,10.10
2023-04-26T11:43:07.369Z,10.40
2023-04-26T11:45:36.332Z,10.60
2023-04-26T11:48:08.458Z,10.70
2023-04-26T11:50:37.562Z,10.60
2023-04-26T11:53:06.842Z,10.60
2023-04-26T11:55:35.357Z,10.60
2023-04-26T11:58:10.419Z,10.60
2023-04-26T12:00:37.888Z,10.60
2023-04-26T12:03:11.286Z,10.50
2023-04-26T12:05:38.608Z,10.50
2023-04-26T12:08:05.651Z,10.50
2023-04-26T12:10:37.079Z,10.50
2023-04-26T12:13:07.058Z,10.20
2023-04-26T12:15:37.373Z,10.20
2023-04-26T12:18:10.239Z,10.00
2023-04-26T12:20:40.067Z,10.20
2023-04-26T12:23:14.518Z,10.40
2023-04-26T12:25:42.840Z,10.50
2023-04-26T12:28:13.799Z,10.50
2023-04-26T12:30:41.172Z,10.40
2023-04-26T12:33:17.033Z,10.30
2023-04-26T12:35:44.817Z,10.20
2023-04-26T12:38:12.313Z,10.30
2023-04-26T12:40:39.810Z,10.40
2023-04-26T12:43:07.311Z,10.50
2023-04-26T12:45:34.780Z,10.50
2023-04-26T12:48:02.295Z,10.50
2023-04-26T12:50:29.474Z,10.40
2023-04-26T12:52:56.765Z,10.20
2023-04-26T12:55:24.153Z,10.00
2023-04-26T12:57:51.137Z,10.00
2023-04-26T13:00:18.438Z,10.00
2023-04-26T13:02:46.680Z,10.20
2023-04-26T13:05:14.357Z,10.20
2023-04-26T13:07:42.934Z,10.20
2023-04-26T13:10:12.883Z,10.30
2023-04-26T13:12:40.657Z,10.30
2023-04-26T13:15:08.478Z,10.20
2023-04-26T13:17:37.677Z,10.10
2023-04-26T13:20:06.672Z,10.10
2023-04-26T13:22:37.023Z,10.20
2023-04-26T13:25:05.197Z,10.30
2023-04-26T13:27:32.344Z,10.50
2023-04-26T13:29:59.558Z,10.60
2023-04-26T13:32:26.583Z,10.70
2023-04-26T13:34:54.319Z,10.70
2023-04-26T13:37:22.693Z,10.60
2023-04-26T13:39:49.880Z,10.50
2023-04-26T13:42:17.551Z,10.30
2023-04-26T13:44:44.906Z,10.50
2023-04-26T13:47:12.046Z,10.50
2023-04-26T13:49:41.850Z,10.80
2023-04-26T13:52:09.122Z,11.10
2023-04-26T13:54:36.891Z,11.20
2023-04-26T13:57:04.440Z,11.20
2023-04-26T13:59:31.716Z,11.10
2023-04-26T14:01:59.524Z,10.90
2023-04-26T14:04:27.235Z,11.00
2023-04-26T14:06:54.598Z,10.80
2023-04-26T14:09:21.830Z,10.70
2023-04-26T14:11:57.082Z,10.70
2023-04-26T14:14:27.805Z,10.70
2023-04-26T14:16:54.704Z,10.70
2023-04-26T14:19:21.796Z,10.90
2023-04-26T14:21:48.849Z,11.00
2023-04-26T14:24:16.038Z,11.00
2023-04-26T14:26:42.965Z,11.00
2023-04-26T14:29:10.096Z,10.90
2023-04-26T14:31:37.248Z,10.80
2023-04-26T14:34:04.328Z,10.80
2023-04-26T14:36:33.236Z,10.70
2023-04-26T14:39:00.463Z,10.60
2023-04-26T14:41:27.524Z,10.70
2023-04-26T14:43:57.314Z,10.80
2023-04-26T14:46:24.334Z,10.80
2023-04-26T14:53:20.446Z,11.00
2023-04-26T14:55:59.485Z,10.60
2023-04-26T14:58:27.133Z,10.50
2023-04-26T15:00:54.601Z,10.50
2023-04-26T15:07:31.796Z,10.20
2023-04-26T15:14:59.172Z,10.10
2023-04-26T15:17:32.585Z,10.20
2023-04-26T15:20:01.195Z,10.20
2023-04-26T15:22:39.005Z,10.30
2023-04-26T15:25:07.070Z,10.20
2023-04-26T15:27:41.209Z,10.30
2023-04-26T15:30:13.904Z,10.40
2023-04-26T15:32:41.829Z,10.60
2023-04-26T15:35:16.446Z,10.60
2023-04-26T15:37:44.326Z,10.50
2023-04-26T15:40:12.701Z,10.60
2023-04-26T15:47:03.924Z,10.50
2023-04-26T15:49:31.526Z,10.30
2023-04-26T15:51:58.771Z,10.30
2023-04-26T15:54:28.896Z,10.20
2023-04-26T15:56:56.129Z,10.30
2023-04-26T15:59:23.407Z,10.40
2023-04-26T16:01:50.584Z,10.40
2023-04-26T16:04:20.956Z,10.50
2023-04-26T16:06:48.167Z,10.50
2023-04-26T16:09:24.957Z,10.50
2023-04-26T16:11:52.995Z,10.50
2023-04-26T16:14:23.316Z,10.30
2023-04-26T16:16:50.719Z,10.20
2023-04-26T16:19:24.744Z,10.00
2023-04-26T16:29:38.739Z,9.90
2023-04-26T16:47:04.276Z,10.00
2023-04-26T16:56:51.481Z,9.70
2023-04-26T17:03:12.682Z,9.70
2023-04-26T17:09:52.464Z,9.50
2023-04-26T17:12:20.521Z,9.60
2023-04-26T17:14:48.901Z,9.50
2023-04-26T17:17:19.968Z,9.50
2023-04-26T17:19:55.074Z,9.60
2023-04-26T17:32:38.046Z,9.60
2023-04-26T17:35:10.894Z,9.50
2023-04-26T17:38:04.150Z,9.50
2023-04-26T17:40:31.754Z,9.40
2023-04-26T17:43:00.143Z,9.40
2023-04-26T17:45:27.596Z,9.40
2023-04-26T17:47:54.987Z,9.30
2023-04-26T17:50:23.593Z,9.10
2023-04-26T17:52:50.912Z,9.10
2023-04-26T17:55:18.189Z,9.10
2023-04-26T17:57:45.259Z,9.10
2023-04-26T18:00:12.998Z,9.10
2023-04-26T18:02:44.358Z,9.20
2023-04-26T18:05:11.898Z,9.20
2023-04-26T18:07:39.058Z,9.20
2023-04-26T18:10:06.957Z,9.10
2023-04-26T18:12:34.078Z,9.00
2023-04-26T18:15:01.312Z,8.90
2023-04-26T18:17:28.369Z,8.90
2023-04-26T18:19:56.500Z,8.70
2023-04-26T18:22:23.530Z,8.70
2023-04-26T18:24:50.657Z,8.70
2023-04-26T18:27:17.732Z,8.70
2023-04-26T18:29:44.764Z,8.60
2023-04-26T18:32:12.554Z,8.60
2023-04-26T18:34:40.052Z,8.50
2023-04-26T18:37:07.446Z,8.50
2023-04-26T18:39:37.080Z,8.50
2023-04-26T18:42:04.350Z,8.50
2023-04-26T18:44:31.616Z,8.50
2023-04-26T18:46:58.594Z,8.50
2023-04-26T18:49:28.907Z,8.50
2023-04-26T18:51:59.107Z,8.50
2023-04-26T18:54:26.558Z,8.50
2023-04-26T18:56:54.193Z,8.50
2023-04-26T18:59:21.276Z,8.50
2023-04-26T19:01:49.314Z,8.50
2023-04-26T19:04:16.733Z,8.50
2023-04-26T19:06:43.909Z,8.50
2023-04-26T19:09:13.390Z,8.50
2023-04-26T19:11:40.600Z,8.50
2023-04-26T19:14:07.655Z,8.50
2023-04-26T19:16:39.007Z,8.40
2023-04-26T19:19:06.144Z,8.40
2023-04-26T19:21:33.900Z,8.40
2023-04-26T19:24:01.107Z,8.30
2023-04-26T19:26:28.173Z,8.30
2023-04-26T19:28:55.919Z,8.20
2023-04-26T19:31:23.376Z,8.20
2023-04-26T19:33:50.426Z,8.10
2023-04-26T19:36:17.367Z,8.00
2023-04-26T19:38:44.540Z,8.00
2023-04-26T19:41:11.723Z,7.90
2023-04-26T19:43:38.691Z,7.90
2023-04-26T19:46:15.843Z,7.90
2023-04-26T19:48:43.323Z,7.90
2023-04-26T19:51:16.761Z,7.90
2023-04-26T19:53:46.941Z,7.90
2023-04-26T19:56:14.141Z,8.00
2023-04-26T19:58:44.100Z,8.00
2023-04-26T20:01:13.414Z,8.00
2023-04-26T20:03:43.861Z,8.00
2023-04-26T20:06:13.960Z,8.00
2023-04-26T20:08:41.576Z,8.00
2023-04-26T20:11:17.740Z,8.00
2023-04-26T20:13:45.676Z,8.00
2023-04-26T20:16:13.188Z,8.10
2023-04-26T20:18:40.299Z,8.10
2023-04-26T20:21:07.805Z,8.10
2023-04-26T20:23:36.161Z,8.10
2023-04-26T20:26:03.986Z,8.10
2023-04-26T20:28:45.021Z,8.10
2023-04-26T20:31:12.471Z,8.00
2023-04-26T20:33:39.475Z,8.00
2023-04-26T20:36:07.091Z,8.00
2023-04-26T20:38:34.120Z,8.00
2023-04-26T20:41:01.326Z,7.90
2023-04-26T20:43:28.634Z,7.80
2023-04-26T20:45:55.958Z,7.80
2023-04-26T20:48:24.142Z,7.70
2023-04-26T20:50:54.350Z,7.50
2023-04-26T20:53:21.379Z,7.40
2023-04-26T20:55:48.365Z,7.30
2023-04-26T20:58:15.505Z,7.20
2023-04-26T21:00:42.706Z,7.20
2023-04-26T21:03:09.897Z,7.10
2023-04-26T21:05:37.028Z,7.00
2023-04-26T21:08:04.210Z,7.00
2023-04-26T21:10:31.531Z,7.00
2023-04-26T21:12:58.571Z,7.00
2023-04-26T21:15:25.728Z,7.00
2023-04-26T21:17:52.812Z,6.90
2023-04-26T21:20:19.854Z,6.90
2023-04-26T21:22:49.844Z,6.90
2023-04-26T21:25:19.727Z,6.90
2023-04-26T21:27:46.880Z,7.00
2023-04-26T21:30:14.131Z,7.00
2023-04-26T21:32:41.949Z,7.00
2023-04-26T21:35:11.000Z,7.00
2023-04-26T21:37:38.134Z,7.00
2023-04-26T21:40:06.642Z,7.10
2023-04-26T21:42:33.789Z,7.10
2023-04-26T21:45:00.874Z,7.00
2023-04-26T21:47:28.040Z,7.00
2023-04-26T21:49:55.068Z,7.00
2023-04-26T21:52:22.198Z,7.00
2023-04-26T21:54:50.595Z,7.00
2023-04-26T21:57:20.304Z,7.00
2023-04-26T21:59:47.318Z,6.90
2023-04-26T22:02:14.527Z,6.90
2023-04-26T22:04:41.731Z,6.90
2023-04-26T22:07:08.956Z,6.90
2023-04-26T22:09:36.157Z,6.90
2023-04-26T22:12:06.322Z,6.90
2023-04-26T22:14:33.456Z,6.80
2023-04-26T22:17:01.140Z,6.90
2023-04-26T22:19:28.245Z,6.80
2023-04-26T22:21:56.452Z,6.80
2023-04-26T22:24:23.647Z,6.80
2023-04-26T22:26:50.772Z,6.70
2023-04-26T22:29:17.916Z,6.70
2023-04-26T22:31:45.037Z,6.70
2023-04-26T22:34:12.149Z,6.60
2023-04-26T22:36:39.744Z,6.50
2023-04-26T22:39:07.230Z,6.50
2023-04-26T22:41:34.245Z,6.50
2023-04-26T22:44:02.591Z,6.50
2023-04-26T22:46:29.853Z,6.50
2023-04-26T22:48:56.975Z,6.50
2023-04-26T22:51:26.081Z,6.40
2023-04-26T22:53:53.168Z,6.40
2023-04-26T22:56:20.225Z,6.40
2023-04-26T22:58:47.371Z,6.40
2023-04-26T23:01:14.587Z,6.40
2023-04-26T23:03:41.990Z,6.30
2023-04-26T23:06:09.046Z,6.30
2023-04-26T23:08:36.352Z,6.30
2023-04-26T23:11:08.378Z,6.30
2023-04-26T23:13:36.360Z,6.40
2023-04-26T23:16:04.583Z,6.40
2023-04-26T23:18:34.319Z,6.40
2023-04-26T23:21:01.603Z,6.40
2023-04-26T23:23:28.774Z,6.40
2023-04-26T23:25:55.838Z,6.40
2023-04-26T23:28:22.919Z,6.40
2023-04-26T23:30:49.977Z,6.40
2023-04-26T23:33:17.210Z,6.30
2023-04-26T23:35:44.246Z,6.20
2023-04-26T23:38:11.832Z,6.20
2023-04-26T23:40:38.945Z,6.10
2023-04-26T23:43:06.406Z,6.00
2023-04-26T23:45:33.772Z,6.00
2023-04-26T23:48:01.933Z,5.90
2023-04-26T23:50:29.092Z,5.70
2023-04-26T23:52:56.211Z,5.70
2023-04-26T23:55:23.976Z,5.70
2023-04-26T23:57:51.298Z,5.80
